sensor_id;sensor_type;location;lat;lon;timestamp;P1;durP1;ratioP1;P2;durP2;ratioP2
48161;SDS011;33950;48.154;16.316;2022-10-16T00:02:38;87.90;;;47.88;;
48161;SDS011;33950;48.154;16.316;2022-10-16T00:05:24;133.80;;;45.00;;
48161;SDS011;33950;48.154;16.316;2022-10-16T00:08:12;113.18;;;48.90;;
48161;SDS011;33950;48.154;16.316;2022-10-16T00:10:59;119.40;;;49.42;;
48161;SDS011;33950;48.154;16.316;2022-10-16T00:13:46;100.15;;;48.15;;
48161;SDS011;33950;48.154;16.316;2022-10-16T00:16:34;78.03;;;45.80;;
48161;SDS011;33950;48.154;16.316;2022-10-16T00:19:20;151.32;;;49.80;;
48161;SDS011;33950;48.154;16.316;2022-10-16T00:22:06;143.48;;;46.50;;
48161;SDS011;33950;48.154;16.316;2022-10-16T00:24:54;205.45;;;54.67;;
48161;SDS011;33950;48.154;16.316;2022-10-16T00:27:40;125.43;;;47.60;;
48161;SDS011;33950;48.154;16.316;2022-10-16T00:30:26;154.70;;;48.70;;
48161;SDS011;33950;48.154;16.316;2022-10-16T00:33:13;196.50;;;51.70;;
48161;SDS011;33950;48.154;16.316;2022-10-16T00:35:59;180.85;;;46.63;;
48161;SDS011;33950;48.154;16.316;2022-10-16T00:38:45;139.43;;;44.67;;
48161;SDS011;33950;48.154;16.316;2022-10-16T00:41:33;97.20;;;43.13;;
48161;SDS011;33950;48.154;16.316;2022-10-16T00:47:29;144.02;;;46.63;;
48161;SDS011;33950;48.154;16.316;2022-10-16T00:50:21;80.65;;;41.15;;
48161;SDS011;33950;48.154;16.316;2022-10-16T00:53:11;84.40;;;41.50;;
48161;SDS011;33950;48.154;16.316;2022-10-16T00:55:58;104.43;;;42.67;;
48161;SDS011;33950;48.154;16.316;2022-10-16T00:58:45;75.47;;;43.40;;
48161;SDS011;33950;48.154;16.316;2022-10-16T01:01:31;103.93;;;42.45;;
48161;SDS011;33950;48.154;16.316;2022-10-16T01:04:18;74.47;;;42.97;;
48161;SDS011;33950;48.154;16.316;2022-10-16T01:07:06;102.40;;;42.47;;
48161;SDS011;33950;48.154;16.316;2022-10-16T01:10:02;124.43;;;43.20;;
48161;SDS011;33950;48.154;16.316;2022-10-16T01:13:01;116.05;;;45.15;;
48161;SDS011;33950;48.154;16.316;2022-10-16T01:15:54;92.85;;;40.42;;
48161;SDS011;33950;48.154;16.316;2022-10-16T01:18:46;108.10;;;43.25;;
48161;SDS011;33950;48.154;16.316;2022-10-16T01:21:38;96.45;;;43.17;;
48161;SDS011;33950;48.154;16.316;2022-10-16T01:24:28;127.00;;;46.45;;
48161;SDS011;33950;48.154;16.316;2022-10-16T01:27:20;86.47;;;44.45;;
48161;SDS011;33950;48.154;16.316;2022-10-16T01:30:11;103.32;;;44.58;;
48161;SDS011;33950;48.154;16.316;2022-10-16T01:33:02;86.90;;;42.33;;
48161;SDS011;33950;48.154;16.316;2022-10-16T01:35:54;82.50;;;43.40;;
48161;SDS011;33950;48.154;16.316;2022-10-16T01:38:46;83.13;;;43.08;;
48161;SDS011;33950;48.154;16.316;2022-10-16T01:41:38;86.25;;;42.38;;
48161;SDS011;33950;48.154;16.316;2022-10-16T01:44:29;120.55;;;45.25;;
48161;SDS011;33950;48.154;16.316;2022-10-16T01:47:18;155.30;;;46.47;;
48161;SDS011;33950;48.154;16.316;2022-10-16T01:50:07;80.90;;;41.85;;
48161;SDS011;33950;48.154;16.316;2022-10-16T01:52:54;115.10;;;43.33;;
48161;SDS011;33950;48.154;16.316;2022-10-16T01:55:44;223.77;;;47.13;;
48161;SDS011;33950;48.154;16.316;2022-10-16T01:58:33;79.05;;;42.58;;
48161;SDS011;33950;48.154;16.316;2022-10-16T02:01:24;79.10;;;41.15;;
48161;SDS011;33950;48.154;16.316;2022-10-16T02:04:15;73.63;;;42.08;;
48161;SDS011;33950;48.154;16.316;2022-10-16T02:07:06;95.32;;;43.13;;
48161;SDS011;33950;48.154;16.316;2022-10-16T02:09:53;85.20;;;40.00;;
48161;SDS011;33950;48.154;16.316;2022-10-16T02:12:40;96.75;;;40.30;;
48161;SDS011;33950;48.154;16.316;2022-10-16T02:15:29;94.70;;;39.13;;
48161;SDS011;33950;48.154;16.316;2022-10-16T02:18:17;84.25;;;39.70;;
48161;SDS011;33950;48.154;16.316;2022-10-16T02:21:05;136.77;;;39.33;;
48161;SDS011;33950;48.154;16.316;2022-10-16T02:23:59;71.82;;;38.28;;
48161;SDS011;33950;48.154;16.316;2022-10-16T02:26:52;90.25;;;40.85;;
48161;SDS011;33950;48.154;16.316;2022-10-16T02:29:43;98.25;;;38.67;;
48161;SDS011;33950;48.154;16.316;2022-10-16T02:35:25;74.80;;;37.55;;
48161;SDS011;33950;48.154;16.316;2022-10-16T02:38:12;92.55;;;40.20;;
48161;SDS011;33950;48.154;16.316;2022-10-16T02:41:00;72.63;;;39.17;;
48161;SDS011;33950;48.154;16.316;2022-10-16T02:43:47;78.82;;;39.85;;
48161;SDS011;33950;48.154;16.316;2022-10-16T02:46:34;74.55;;;38.70;;
48161;SDS011;33950;48.154;16.316;2022-10-16T02:49:20;66.72;;;38.35;;
48161;SDS011;33950;48.154;16.316;2022-10-16T02:52:07;68.32;;;37.45;;
48161;SDS011;33950;48.154;16.316;2022-10-16T02:54:53;61.20;;;35.47;;
48161;SDS011;33950;48.154;16.316;2022-10-16T02:57:40;60.03;;;36.25;;
48161;SDS011;33950;48.154;16.316;2022-10-16T03:00:26;52.17;;;32.65;;
48161;SDS011;33950;48.154;16.316;2022-10-16T03:03:12;54.70;;;33.60;;
48161;SDS011;33950;48.154;16.316;2022-10-16T03:05:58;48.58;;;31.65;;
48161;SDS011;33950;48.154;16.316;2022-10-16T03:08:45;54.63;;;33.67;;
48161;SDS011;33950;48.154;16.316;2022-10-16T03:11:31;56.08;;;33.97;;
48161;SDS011;33950;48.154;16.316;2022-10-16T03:14:17;59.22;;;34.03;;
48161;SDS011;33950;48.154;16.316;2022-10-16T03:17:03;63.63;;;35.22;;
48161;SDS011;33950;48.154;16.316;2022-10-16T03:19:49;63.03;;;36.00;;
48161;SDS011;33950;48.154;16.316;2022-10-16T03:22:36;53.38;;;33.97;;
48161;SDS011;33950;48.154;16.316;2022-10-16T03:25:23;55.97;;;35.20;;
48161;SDS011;33950;48.154;16.316;2022-10-16T03:28:09;52.83;;;34.38;;
48161;SDS011;33950;48.154;16.316;2022-10-16T03:30:55;55.92;;;35.17;;
48161;SDS011;33950;48.154;16.316;2022-10-16T03:33:41;59.35;;;35.50;;
48161;SDS011;33950;48.154;16.316;2022-10-16T03:36:28;58.63;;;36.20;;
48161;SDS011;33950;48.154;16.316;2022-10-16T03:39:14;72.90;;;36.35;;
48161;SDS011;33950;48.154;16.316;2022-10-16T03:42:01;90.15;;;35.92;;
48161;SDS011;33950;48.154;16.316;2022-10-16T03:44:48;127.18;;;37.25;;
48161;SDS011;33950;48.154;16.316;2022-10-16T03:47:34;57.35;;;34.55;;
48161;SDS011;33950;48.154;16.316;2022-10-16T03:50:20;92.45;;;36.97;;
48161;SDS011;33950;48.154;16.316;2022-10-16T03:53:06;94.80;;;35.78;;
48161;SDS011;33950;48.154;16.316;2022-10-16T03:55:52;60.30;;;35.22;;
48161;SDS011;33950;48.154;16.316;2022-10-16T03:58:39;59.00;;;33.03;;
48161;SDS011;33950;48.154;16.316;2022-10-16T04:01:25;58.55;;;32.95;;
48161;SDS011;33950;48.154;16.316;2022-10-16T04:04:12;159.00;;;36.10;;
48161;SDS011;33950;48.154;16.316;2022-10-16T04:06:58;51.67;;;33.00;;
48161;SDS011;33950;48.154;16.316;2022-10-16T04:09:44;64.47;;;32.60;;
48161;SDS011;33950;48.154;16.316;2022-10-16T04:12:30;86.40;;;33.88;;
48161;SDS011;33950;48.154;16.316;2022-10-16T04:15:17;113.72;;;31.27;;
48161;SDS011;33950;48.154;16.316;2022-10-16T04:18:03;60.25;;;29.25;;
48161;SDS011;33950;48.154;16.316;2022-10-16T04:20:50;66.72;;;31.20;;
48161;SDS011;33950;48.154;16.316;2022-10-16T04:23:36;57.40;;;29.90;;
48161;SDS011;33950;48.154;16.316;2022-10-16T04:26:22;58.60;;;29.75;;
48161;SDS011;33950;48.154;16.316;2022-10-16T04:29:08;75.43;;;31.58;;
48161;SDS011;33950;48.154;16.316;2022-10-16T04:31:56;98.30;;;32.45;;
48161;SDS011;33950;48.154;16.316;2022-10-16T04:34:42;49.60;;;31.77;;
48161;SDS011;33950;48.154;16.316;2022-10-16T04:37:28;51.00;;;32.22;;
48161;SDS011;33950;48.154;16.316;2022-10-16T04:40:14;60.08;;;31.42;;
48161;SDS011;33950;48.154;16.316;2022-10-16T04:43:00;56.95;;;30.25;;
48161;SDS011;33950;48.154;16.316;2022-10-16T04:45:46;50.78;;;30.30;;
48161;SDS011;33950;48.154;16.316;2022-10-16T04:48:34;56.92;;;31.25;;
48161;SDS011;33950;48.154;16.316;2022-10-16T04:51:20;44.35;;;30.13;;
48161;SDS011;33950;48.154;16.316;2022-10-16T04:54:06;55.03;;;31.20;;
48161;SDS011;33950;48.154;16.316;2022-10-16T04:56:52;63.22;;;31.60;;
48161;SDS011;33950;48.154;16.316;2022-10-16T04:59:38;42.65;;;29.25;;
48161;SDS011;33950;48.154;16.316;2022-10-16T05:02:24;54.10;;;31.45;;
48161;SDS011;33950;48.154;16.316;2022-10-16T05:05:12;51.30;;;30.45;;
48161;SDS011;33950;48.154;16.316;2022-10-16T05:07:59;45.45;;;29.58;;
48161;SDS011;33950;48.154;16.316;2022-10-16T05:10:45;47.17;;;29.80;;
48161;SDS011;33950;48.154;16.316;2022-10-16T05:13:31;40.65;;;29.77;;
48161;SDS011;33950;48.154;16.316;2022-10-16T05:16:18;60.33;;;30.98;;
48161;SDS011;33950;48.154;16.316;2022-10-16T05:19:04;42.97;;;29.00;;
48161;SDS011;33950;48.154;16.316;2022-10-16T05:21:51;43.53;;;27.73;;
48161;SDS011;33950;48.154;16.316;2022-10-16T05:24:37;56.03;;;28.73;;
48161;SDS011;33950;48.154;16.316;2022-10-16T05:27:23;66.85;;;28.90;;
48161;SDS011;33950;48.154;16.316;2022-10-16T05:30:10;56.88;;;28.05;;
48161;SDS011;33950;48.154;16.316;2022-10-16T05:32:56;42.40;;;26.42;;
48161;SDS011;33950;48.154;16.316;2022-10-16T05:35:42;42.60;;;25.95;;
48161;SDS011;33950;48.154;16.316;2022-10-16T05:38:30;35.50;;;24.23;;
48161;SDS011;33950;48.154;16.316;2022-10-16T05:41:16;58.78;;;25.02;;
48161;SDS011;33950;48.154;16.316;2022-10-16T05:44:06;49.20;;;25.58;;
48161;SDS011;33950;48.154;16.316;2022-10-16T05:46:52;91.00;;;28.52;;
48161;SDS011;33950;48.154;16.316;2022-10-16T05:49:38;45.72;;;24.70;;
48161;SDS011;33950;48.154;16.316;2022-10-16T05:52:26;86.15;;;27.08;;
48161;SDS011;33950;48.154;16.316;2022-10-16T05:55:14;76.35;;;27.73;;
48161;SDS011;33950;48.154;16.316;2022-10-16T05:58:00;54.03;;;23.42;;
48161;SDS011;33950;48.154;16.316;2022-10-16T06:00:52;106.55;;;27.77;;
48161;SDS011;33950;48.154;16.316;2022-10-16T06:03:39;65.00;;;27.65;;
48161;SDS011;33950;48.154;16.316;2022-10-16T06:06:26;52.00;;;25.92;;
48161;SDS011;33950;48.154;16.316;2022-10-16T06:09:13;48.55;;;24.35;;
48161;SDS011;33950;48.154;16.316;2022-10-16T06:12:01;44.88;;;25.77;;
48161;SDS011;33950;48.154;16.316;2022-10-16T06:14:47;45.08;;;25.92;;
48161;SDS011;33950;48.154;16.316;2022-10-16T06:17:34;47.60;;;26.33;;
48161;SDS011;33950;48.154;16.316;2022-10-16T06:20:20;43.22;;;26.60;;
48161;SDS011;33950;48.154;16.316;2022-10-16T06:23:06;54.92;;;27.83;;
48161;SDS011;33950;48.154;16.316;2022-10-16T06:25:52;53.67;;;28.30;;
48161;SDS011;33950;48.154;16.316;2022-10-16T06:28:39;65.25;;;29.90;;
48161;SDS011;33950;48.154;16.316;2022-10-16T06:31:26;70.50;;;30.75;;
48161;SDS011;33950;48.154;16.316;2022-10-16T06:34:15;78.22;;;32.40;;
48161;SDS011;33950;48.154;16.316;2022-10-16T06:37:02;58.90;;;30.80;;
48161;SDS011;33950;48.154;16.316;2022-10-16T06:39:48;101.40;;;32.80;;
48161;SDS011;33950;48.154;16.316;2022-10-16T06:42:34;63.80;;;29.45;;
48161;SDS011;33950;48.154;16.316;2022-10-16T06:45:21;55.38;;;31.35;;
48161;SDS011;33950;48.154;16.316;2022-10-16T06:48:07;84.25;;;32.63;;
48161;SDS011;33950;48.154;16.316;2022-10-16T06:50:57;86.03;;;33.78;;
48161;SDS011;33950;48.154;16.316;2022-10-16T06:53:44;66.32;;;34.75;;
48161;SDS011;33950;48.154;16.316;2022-10-16T06:56:34;66.25;;;34.95;;
48161;SDS011;33950;48.154;16.316;2022-10-16T06:59:21;104.43;;;38.28;;
48161;SDS011;33950;48.154;16.316;2022-10-16T07:02:08;76.70;;;37.53;;
48161;SDS011;33950;48.154;16.316;2022-10-16T07:04:55;68.18;;;36.05;;
48161;SDS011;33950;48.154;16.316;2022-10-16T07:07:42;69.07;;;36.08;;
48161;SDS011;33950;48.154;16.316;2022-10-16T07:10:28;69.63;;;37.75;;
48161;SDS011;33950;48.154;16.316;2022-10-16T07:13:14;88.60;;;40.25;;
48161;SDS011;33950;48.154;16.316;2022-10-16T07:16:03;88.60;;;40.38;;
48161;SDS011;33950;48.154;16.316;2022-10-16T07:18:53;103.93;;;39.90;;
48161;SDS011;33950;48.154;16.316;2022-10-16T07:21:43;97.70;;;40.97;;
48161;SDS011;33950;48.154;16.316;2022-10-16T07:24:29;89.07;;;42.65;;
48161;SDS011;33950;48.154;16.316;2022-10-16T07:27:15;110.30;;;42.53;;
48161;SDS011;33950;48.154;16.316;2022-10-16T07:30:02;97.78;;;44.17;;
48161;SDS011;33950;48.154;16.316;2022-10-16T07:32:49;93.82;;;46.83;;
48161;SDS011;33950;48.154;16.316;2022-10-16T07:35:37;79.75;;;42.08;;
48161;SDS011;33950;48.154;16.316;2022-10-16T07:38:23;85.18;;;40.85;;
48161;SDS011;33950;48.154;16.316;2022-10-16T07:41:09;70.90;;;39.55;;
48161;SDS011;33950;48.154;16.316;2022-10-16T07:43:56;71.53;;;39.72;;
48161;SDS011;33950;48.154;16.316;2022-10-16T07:46:45;69.28;;;37.85;;
48161;SDS011;33950;48.154;16.316;2022-10-16T07:49:31;63.17;;;37.10;;
48161;SDS011;33950;48.154;16.316;2022-10-16T07:52:19;63.17;;;37.10;;
48161;SDS011;33950;48.154;16.316;2022-10-16T07:55:05;109.00;;;42.13;;
48161;SDS011;33950;48.154;16.316;2022-10-16T07:57:51;69.20;;;38.40;;
48161;SDS011;33950;48.154;16.316;2022-10-16T08:00:37;58.05;;;35.97;;
48161;SDS011;33950;48.154;16.316;2022-10-16T08:03:23;130.65;;;44.25;;
48161;SDS011;33950;48.154;16.316;2022-10-16T08:06:10;73.68;;;39.30;;
48161;SDS011;33950;48.154;16.316;2022-10-16T08:08:57;79.05;;;42.05;;
48161;SDS011;33950;48.154;16.316;2022-10-16T08:11:45;77.97;;;42.97;;
48161;SDS011;33950;48.154;16.316;2022-10-16T08:14:31;89.15;;;46.15;;
48161;SDS011;33950;48.154;16.316;2022-10-16T08:17:17;95.15;;;44.08;;
48161;SDS011;33950;48.154;16.316;2022-10-16T08:20:03;90.78;;;45.33;;
48161;SDS011;33950;48.154;16.316;2022-10-16T08:22:50;86.50;;;44.30;;
48161;SDS011;33950;48.154;16.316;2022-10-16T08:25:38;97.75;;;44.25;;
48161;SDS011;33950;48.154;16.316;2022-10-16T08:28:24;87.30;;;43.75;;
48161;SDS011;33950;48.154;16.316;2022-10-16T08:31:11;77.40;;;42.50;;
48161;SDS011;33950;48.154;16.316;2022-10-16T08:33:58;72.25;;;40.05;;
48161;SDS011;33950;48.154;16.316;2022-10-16T08:36:44;76.97;;;41.65;;
48161;SDS011;33950;48.154;16.316;2022-10-16T08:39:30;89.13;;;38.72;;
48161;SDS011;33950;48.154;16.316;2022-10-16T08:42:28;71.03;;;40.63;;
48161;SDS011;33950;48.154;16.316;2022-10-16T08:45:24;93.63;;;41.85;;
48161;SDS011;33950;48.154;16.316;2022-10-16T08:48:18;73.72;;;40.00;;
48161;SDS011;33950;48.154;16.316;2022-10-16T08:51:18;71.63;;;40.17;;
48161;SDS011;33950;48.154;16.316;2022-10-16T08:54:06;64.63;;;38.63;;
48161;SDS011;33950;48.154;16.316;2022-10-16T08:57:00;92.60;;;40.03;;
48161;SDS011;33950;48.154;16.316;2022-10-16T08:59:57;78.78;;;39.97;;
48161;SDS011;33950;48.154;16.316;2022-10-16T09:02:48;73.30;;;39.03;;
48161;SDS011;33950;48.154;16.316;2022-10-16T09:05:45;72.40;;;40.30;;
48161;SDS011;33950;48.154;16.316;2022-10-16T09:08:40;77.57;;;40.38;;
48161;SDS011;33950;48.154;16.316;2022-10-16T09:11:41;97.78;;;47.08;;
48161;SDS011;33950;48.154;16.316;2022-10-16T09:14:40;78.13;;;44.38;;
48161;SDS011;33950;48.154;16.316;2022-10-16T09:17:41;63.50;;;37.70;;
48161;SDS011;33950;48.154;16.316;2022-10-16T09:20:38;68.15;;;39.05;;
48161;SDS011;33950;48.154;16.316;2022-10-16T09:23:30;66.13;;;37.92;;
48161;SDS011;33950;48.154;16.316;2022-10-16T09:26:21;56.43;;;36.57;;
48161;SDS011;33950;48.154;16.316;2022-10-16T09:29:08;65.40;;;38.80;;
48161;SDS011;33950;48.154;16.316;2022-10-16T09:31:57;68.05;;;37.67;;
48161;SDS011;33950;48.154;16.316;2022-10-16T09:34:54;53.63;;;34.70;;
48161;SDS011;33950;48.154;16.316;2022-10-16T09:37:43;53.85;;;34.40;;
48161;SDS011;33950;48.154;16.316;2022-10-16T09:40:32;74.13;;;40.95;;
48161;SDS011;33950;48.154;16.316;2022-10-16T09:43:21;76.63;;;42.53;;
48161;SDS011;33950;48.154;16.316;2022-10-16T09:46:20;79.85;;;45.65;;
48161;SDS011;33950;48.154;16.316;2022-10-16T09:49:18;85.60;;;47.08;;
48161;SDS011;33950;48.154;16.316;2022-10-16T09:52:11;103.85;;;53.53;;
48161;SDS011;33950;48.154;16.316;2022-10-16T09:54:59;100.65;;;51.92;;
48161;SDS011;33950;48.154;16.316;2022-10-16T09:57:50;102.78;;;51.92;;
48161;SDS011;33950;48.154;16.316;2022-10-16T10:00:37;100.30;;;50.65;;
48161;SDS011;33950;48.154;16.316;2022-10-16T10:03:33;102.22;;;51.30;;
48161;SDS011;33950;48.154;16.316;2022-10-16T10:06:24;99.63;;;52.42;;
48161;SDS011;33950;48.154;16.316;2022-10-16T10:09:20;92.30;;;48.72;;
48161;SDS011;33950;48.154;16.316;2022-10-16T10:12:15;87.45;;;48.45;;
48161;SDS011;33950;48.154;16.316;2022-10-16T10:15:04;101.10;;;51.03;;
48161;SDS011;33950;48.154;16.316;2022-10-16T10:17:56;94.25;;;49.33;;
48161;SDS011;33950;48.154;16.316;2022-10-16T10:20:43;93.18;;;51.17;;
48161;SDS011;33950;48.154;16.316;2022-10-16T10:23:29;97.85;;;50.42;;
48161;SDS011;33950;48.154;16.316;2022-10-16T10:26:18;95.00;;;49.92;;
48161;SDS011;33950;48.154;16.316;2022-10-16T10:29:10;105.20;;;53.45;;
48161;SDS011;33950;48.154;16.316;2022-10-16T10:32:06;99.32;;;50.95;;
48161;SDS011;33950;48.154;16.316;2022-10-16T10:35:07;88.55;;;50.22;;
48161;SDS011;33950;48.154;16.316;2022-10-16T10:38:02;86.88;;;48.13;;
48161;SDS011;33950;48.154;16.316;2022-10-16T10:41:00;81.28;;;45.47;;
48161;SDS011;33950;48.154;16.316;2022-10-16T10:44:03;83.97;;;47.95;;
48161;SDS011;33950;48.154;16.316;2022-10-16T10:46:57;83.30;;;48.10;;
48161;SDS011;33950;48.154;16.316;2022-10-16T10:49:50;87.53;;;50.53;;
48161;SDS011;33950;48.154;16.316;2022-10-16T10:52:43;89.20;;;49.03;;
48161;SDS011;33950;48.154;16.316;2022-10-16T10:55:40;91.15;;;51.38;;
48161;SDS011;33950;48.154;16.316;2022-10-16T10:58:48;91.60;;;50.72;;
48161;SDS011;33950;48.154;16.316;2022-10-16T11:01:54;85.47;;;47.50;;
48161;SDS011;33950;48.154;16.316;2022-10-16T11:08:02;84.65;;;47.50;;
48161;SDS011;33950;48.154;16.316;2022-10-16T11:10:57;78.00;;;45.78;;
48161;SDS011;33950;48.154;16.316;2022-10-16T11:13:49;77.78;;;44.28;;
48161;SDS011;33950;48.154;16.316;2022-10-16T11:16:42;83.03;;;45.30;;
48161;SDS011;33950;48.154;16.316;2022-10-16T11:19:35;83.70;;;46.20;;
48161;SDS011;33950;48.154;16.316;2022-10-16T11:22:27;85.65;;;46.78;;
48161;SDS011;33950;48.154;16.316;2022-10-16T11:25:19;84.35;;;45.45;;
48161;SDS011;33950;48.154;16.316;2022-10-16T11:28:09;83.53;;;47.08;;
48161;SDS011;33950;48.154;16.316;2022-10-16T11:31:00;86.03;;;45.45;;
48161;SDS011;33950;48.154;16.316;2022-10-16T11:33:51;81.28;;;46.03;;
48161;SDS011;33950;48.154;16.316;2022-10-16T11:36:48;85.10;;;46.47;;
48161;SDS011;33950;48.154;16.316;2022-10-16T11:39:42;87.45;;;49.33;;
48161;SDS011;33950;48.154;16.316;2022-10-16T11:42:30;81.40;;;47.00;;
48161;SDS011;33950;48.154;16.316;2022-10-16T11:45:24;88.03;;;47.92;;
48161;SDS011;33950;48.154;16.316;2022-10-16T11:48:18;83.88;;;49.25;;
48161;SDS011;33950;48.154;16.316;2022-10-16T11:51:11;80.53;;;47.28;;
48161;SDS011;33950;48.154;16.316;2022-10-16T11:54:07;81.15;;;46.90;;
48161;SDS011;33950;48.154;16.316;2022-10-16T11:57:03;87.32;;;47.65;;
48161;SDS011;33950;48.154;16.316;2022-10-16T11:59:57;77.05;;;48.03;;
48161;SDS011;33950;48.154;16.316;2022-10-16T12:02:50;75.88;;;47.30;;
48161;SDS011;33950;48.154;16.316;2022-10-16T12:05:51;81.22;;;48.38;;
48161;SDS011;33950;48.154;16.316;2022-10-16T12:08:44;76.13;;;45.35;;
48161;SDS011;33950;48.154;16.316;2022-10-16T12:11:33;68.80;;;45.28;;
48161;SDS011;33950;48.154;16.316;2022-10-16T12:14:32;71.82;;;46.22;;
48161;SDS011;33950;48.154;16.316;2022-10-16T12:17:25;73.57;;;44.17;;
48161;SDS011;33950;48.154;16.316;2022-10-16T12:20:26;73.20;;;43.33;;
48161;SDS011;33950;48.154;16.316;2022-10-16T12:23:18;72.55;;;46.35;;
48161;SDS011;33950;48.154;16.316;2022-10-16T12:26:07;66.45;;;42.13;;
48161;SDS011;33950;48.154;16.316;2022-10-16T12:28:55;65.70;;;41.80;;
48161;SDS011;33950;48.154;16.316;2022-10-16T12:31:43;62.42;;;41.47;;
48161;SDS011;33950;48.154;16.316;2022-10-16T12:34:37;69.85;;;44.75;;
48161;SDS011;33950;48.154;16.316;2022-10-16T12:37:27;67.40;;;44.13;;
48161;SDS011;33950;48.154;16.316;2022-10-16T12:40:23;68.72;;;43.30;;
48161;SDS011;33950;48.154;16.316;2022-10-16T12:43:13;67.38;;;42.53;;
48161;SDS011;33950;48.154;16.316;2022-10-16T12:46:23;68.38;;;43.47;;
48161;SDS011;33950;48.154;16.316;2022-10-16T12:49:30;63.65;;;41.97;;
48161;SDS011;33950;48.154;16.316;2022-10-16T12:52:23;64.82;;;43.03;;
48161;SDS011;33950;48.154;16.316;2022-10-16T12:55:15;63.45;;;42.60;;
48161;SDS011;33950;48.154;16.316;2022-10-16T12:58:06;64.93;;;44.38;;
48161;SDS011;33950;48.154;16.316;2022-10-16T13:01:03;62.78;;;42.70;;
48161;SDS011;33950;48.154;16.316;2022-10-16T13:07:23;63.75;;;43.00;;
48161;SDS011;33950;48.154;16.316;2022-10-16T13:10:28;64.60;;;42.22;;
48161;SDS011;33950;48.154;16.316;2022-10-16T13:13:36;67.88;;;44.67;;
48161;SDS011;33950;48.154;16.316;2022-10-16T13:16:34;61.97;;;42.38;;
48161;SDS011;33950;48.154;16.316;2022-10-16T13:19:33;58.97;;;41.10;;
48161;SDS011;33950;48.154;16.316;2022-10-16T13:22:24;66.38;;;43.85;;
48161;SDS011;33950;48.154;16.316;2022-10-16T13:25:19;59.13;;;40.58;;
48161;SDS011;33950;48.154;16.316;2022-10-16T13:28:11;59.80;;;41.05;;
48161;SDS011;33950;48.154;16.316;2022-10-16T13:30:59;62.80;;;43.03;;
48161;SDS011;33950;48.154;16.316;2022-10-16T13:33:47;62.47;;;43.13;;
48161;SDS011;33950;48.154;16.316;2022-10-16T13:36:44;63.53;;;43.92;;
48161;SDS011;33950;48.154;16.316;2022-10-16T13:39:32;62.05;;;41.92;;
48161;SDS011;33950;48.154;16.316;2022-10-16T13:42:21;66.43;;;44.83;;
48161;SDS011;33950;48.154;16.316;2022-10-16T13:45:16;69.25;;;43.95;;
48161;SDS011;33950;48.154;16.316;2022-10-16T13:48:09;63.72;;;42.95;;
48161;SDS011;33950;48.154;16.316;2022-10-16T13:50:58;60.90;;;40.35;;
48161;SDS011;33950;48.154;16.316;2022-10-16T13:53:48;65.75;;;44.03;;
48161;SDS011;33950;48.154;16.316;2022-10-16T13:56:34;65.00;;;43.17;;
48161;SDS011;33950;48.154;16.316;2022-10-16T13:59:24;68.45;;;43.15;;
48161;SDS011;33950;48.154;16.316;2022-10-16T14:02:17;62.57;;;43.87;;
48161;SDS011;33950;48.154;16.316;2022-10-16T14:05:08;65.82;;;44.35;;
48161;SDS011;33950;48.154;16.316;2022-10-16T14:07:55;62.28;;;43.05;;
48161;SDS011;33950;48.154;16.316;2022-10-16T14:10:46;67.25;;;42.03;;
48161;SDS011;33950;48.154;16.316;2022-10-16T14:13:39;63.78;;;43.80;;
48161;SDS011;33950;48.154;16.316;2022-10-16T14:16:31;65.43;;;43.85;;
48161;SDS011;33950;48.154;16.316;2022-10-16T14:19:18;68.32;;;46.13;;
48161;SDS011;33950;48.154;16.316;2022-10-16T14:22:19;65.00;;;44.30;;
48161;SDS011;33950;48.154;16.316;2022-10-16T14:25:23;63.25;;;43.55;;
48161;SDS011;33950;48.154;16.316;2022-10-16T14:28:18;66.47;;;45.63;;
48161;SDS011;33950;48.154;16.316;2022-10-16T14:31:19;68.28;;;45.38;;
48161;SDS011;33950;48.154;16.316;2022-10-16T14:34:23;73.70;;;47.55;;
48161;SDS011;33950;48.154;16.316;2022-10-16T14:37:14;63.92;;;44.20;;
48161;SDS011;33950;48.154;16.316;2022-10-16T14:40:11;68.15;;;47.17;;
48161;SDS011;33950;48.154;16.316;2022-10-16T14:43:00;63.38;;;43.53;;
48161;SDS011;33950;48.154;16.316;2022-10-16T14:45:52;67.20;;;43.22;;
48161;SDS011;33950;48.154;16.316;2022-10-16T14:48:41;67.53;;;44.88;;
48161;SDS011;33950;48.154;16.316;2022-10-16T14:51:27;68.03;;;44.38;;
48161;SDS011;33950;48.154;16.316;2022-10-16T14:54:14;79.28;;;44.42;;
48161;SDS011;33950;48.154;16.316;2022-10-16T14:57:02;67.80;;;44.05;;
48161;SDS011;33950;48.154;16.316;2022-10-16T14:59:48;73.88;;;46.72;;
48161;SDS011;33950;48.154;16.316;2022-10-16T15:02:39;72.35;;;47.83;;
48161;SDS011;33950;48.154;16.316;2022-10-16T15:05:26;71.35;;;46.70;;
48161;SDS011;33950;48.154;16.316;2022-10-16T15:08:13;77.25;;;47.85;;
48161;SDS011;33950;48.154;16.316;2022-10-16T15:10:59;73.88;;;47.90;;
48161;SDS011;33950;48.154;16.316;2022-10-16T15:13:45;78.53;;;47.88;;
48161;SDS011;33950;48.154;16.316;2022-10-16T15:16:32;74.55;;;47.10;;
48161;SDS011;33950;48.154;16.316;2022-10-16T15:19:19;72.80;;;47.20;;
48161;SDS011;33950;48.154;16.316;2022-10-16T15:22:05;67.65;;;46.22;;
48161;SDS011;33950;48.154;16.316;2022-10-16T15:24:51;71.50;;;44.25;;
48161;SDS011;33950;48.154;16.316;2022-10-16T15:27:38;76.60;;;45.85;;
48161;SDS011;33950;48.154;16.316;2022-10-16T15:30:25;79.63;;;48.35;;
48161;SDS011;33950;48.154;16.316;2022-10-16T15:33:12;72.63;;;48.35;;
48161;SDS011;33950;48.154;16.316;2022-10-16T15:36:02;75.18;;;49.13;;
48161;SDS011;33950;48.154;16.316;2022-10-16T15:38:48;75.43;;;48.08;;
48161;SDS011;33950;48.154;16.316;2022-10-16T15:41:34;73.40;;;47.47;;
48161;SDS011;33950;48.154;16.316;2022-10-16T15:44:20;72.72;;;47.97;;
48161;SDS011;33950;48.154;16.316;2022-10-16T15:47:11;72.47;;;47.85;;
48161;SDS011;33950;48.154;16.316;2022-10-16T15:49:58;73.15;;;48.80;;
48161;SDS011;33950;48.154;16.316;2022-10-16T15:52:45;79.10;;;50.22;;
48161;SDS011;33950;48.154;16.316;2022-10-16T15:55:31;73.90;;;49.00;;
48161;SDS011;33950;48.154;16.316;2022-10-16T15:58:21;81.03;;;49.05;;
48161;SDS011;33950;48.154;16.316;2022-10-16T16:01:07;77.57;;;48.70;;
48161;SDS011;33950;48.154;16.316;2022-10-16T16:03:55;82.57;;;50.67;;
48161;SDS011;33950;48.154;16.316;2022-10-16T16:06:44;76.07;;;50.50;;
48161;SDS011;33950;48.154;16.316;2022-10-16T16:09:32;78.80;;;50.85;;
48161;SDS011;33950;48.154;16.316;2022-10-16T16:12:18;77.10;;;48.03;;
48161;SDS011;33950;48.154;16.316;2022-10-16T16:15:05;76.85;;;50.20;;
48161;SDS011;33950;48.154;16.316;2022-10-16T16:17:52;72.47;;;44.95;;
48161;SDS011;33950;48.154;16.316;2022-10-16T16:20:38;72.90;;;49.03;;
48161;SDS011;33950;48.154;16.316;2022-10-16T16:23:24;71.20;;;45.60;;
48161;SDS011;33950;48.154;16.316;2022-10-16T16:26:13;78.15;;;49.00;;
48161;SDS011;33950;48.154;16.316;2022-10-16T16:29:00;63.00;;;40.92;;
48161;SDS011;33950;48.154;16.316;2022-10-16T16:31:46;72.10;;;44.90;;